Terminal Aerodrome Forecast
Issued by NWS Medford, OR

Home | Current Version | Previous Version | Text Only | Print | Product List | Glossary On
Versions: 1 2 3 4 5 6 7 8 9 10 11 12 13 14 15 16 17 18
000
FTUS46 KMFR 271950 AAB
TAFMFR
TAF AMD
KMFR 271950Z 2720/2818 VRB03KT 5SM BR SCT005 SCT100 BKN250
     FM272100 VRB03KT P6SM SCT005 SCT100 BKN250
     FM280800 00000KT 1/2SM FG OVC002=

USA.gov is the U.S. government's official web portal to all federal, state and local government web resources and services.